Altha, Florida
Current Conditions -  °F | °C
As of 1:53 PM on Monday 26 Jan 2015 (Local Time) from KMAI Reporting Station
Few Clouds Few Clouds  
Wind Chill: 55°   Ceiling: Unl
Heat Index: 55°   Visibility: 10mi
Dew Point: 37°   Wind: 17mph
Humidity: 51%   Direction: 330°NNW
Pressure: 29.93"   Gusts: 28mph
Location:  30.57°N, 85.13°W
Report Text: KMAI 261953Z AUTO 33015G24KT 10SM FEW038 13/03 A2993 RMK AO2 SLP135 T01280028
Loading
Personal Weather Stations






























Interactive Weather Map New forecast layout! Learn more

10-Day Weather Forecast

Advertisements
Track Severe Weather on mobile